Terminal Aerodrome Forecast
Issued by NWS Boston, MA

Home | Current Version | Previous Version | Text Only | Print | Product List | Glossary On
Versions: 1 2 3 4 5 6 7 8 9 10 11 12 13 14 15 16 17 18 19 20
000
FTUS41 KBOX 011531 AAA
TAFBDL
TAF AMD
KBDL 011531Z 0116/0218 17007KT P6SM -RA OVC060
     FM011800 14006KT P6SM -RA OVC050
     FM012200 14004KT 3SM -RA OVC008
     FM020200 11006KT P6SM VCSH OVC008
     FM020600 12006KT P6SM OVC008=

USA.gov is the U.S. government's official web portal to all federal, state and local government web resources and services.